Time;durP1;ratioP1;P1;durP2;ratioP2;P2;SDS_P1;SDS_P2;PMS_P1;PMS_P2;Temp;Humidity;BMP_temperature;BMP_pressure;BME280_temperature;BME280_humidity;BME280_pressure;Samples;Min_cycle;Max_cycle;Signal;HPM_P1;HPM_P2
2023/02/25 08:57:42;;;;;;;31.48;2.15;;;;;;;6.13;60.24;95646.97;2085181;28;20550;-68
2023/02/25 08:58:44;;;;;;;6.35;1.40;;;;;;;7.30;55.55;95651.25;2078607;28;20200;-70
2023/02/25 09:12:09;;;;;;;4.00;1.25;;;;;;;7.17;55.50;95646.66;2085051;28;20554;-70
2023/02/25 09:13:10;;;;;;;7.47;1.20;;;;;;;8.40;52.05;95643.25;2079833;28;20660;-69
2023/02/25 09:14:13;;;;;;;1.35;0.63;;;;;;;9.19;50.02;95631.28;2080521;28;20193;-70
2023/02/25 09:15:14;;;;;;;5.30;1.10;;;;;;;9.72;47.81;95643.03;2073570;28;20240;-70
2023/02/25 09:16:16;;;;;;;4.38;1.10;;;;;;;10.38;46.72;95643.59;2069478;28;20198;-70
2023/02/25 09:17:18;;;;;;;3.15;1.08;;;;;;;10.59;46.26;95636.25;2074415;28;20204;-70
2023/02/25 09:18:19;;;;;;;2.20;1.00;;;;;;;11.03;44.54;95644.88;2074338;28;20201;-69
2023/02/25 09:19:21;;;;;;;4.95;1.10;;;;;;;11.16;44.94;95637.13;2074615;28;20203;-69
2023/02/25 09:20:23;;;;;;;4.38;1.20;;;;;;;11.63;43.46;95640.25;2073226;28;20251;-70
2023/02/25 09:21:24;;;;;;;2.70;1.15;;;;;;;11.83;41.62;95644.16;2074270;28;20817;-70
2023/02/25 09:22:27;;;;;;;5.43;1.00;;;;;;;11.33;41.37;95638.66;2075100;28;20234;-69
2023/02/25 09:23:32;;;;;;;3.90;1.00;;;;;;;11.85;41.62;95633.63;2074438;28;20201;-70
2023/02/25 09:24:33;;;;;;;5.65;1.35;;;;;;;10.52;42.80;95642.75;2074495;28;20208;-70
2023/02/25 09:25:37;;;;;;;4.93;1.00;;;;;;;8.74;46.43;95641.50;2073089;28;20278;-70
2023/02/25 09:26:38;;;;;;;4.38;1.25;;;;;;;8.05;48.21;95635.47;2073090;28;20220;-70
2023/02/25 09:27:40;;;;;;;3.42;1.25;;;;;;;8.00;50.03;95641.75;2073029;28;20229;-70
2023/02/25 09:28:41;;;;;;;3.50;1.00;;;;;;;7.63;50.80;95646.19;2073035;28;20224;-70
2023/02/25 09:29:43;;;;;;;3.75;1.10;;;;;;;7.96;49.87;95637.63;2073774;28;20224;-67
2023/02/25 09:30:45;;;;;;;4.45;1.10;;;;;;;8.05;50.54;95649.34;2071580;28;20610;-70
2023/02/25 09:31:47;;;;;;;8.18;1.58;;;;;;;7.65;51.24;95641.75;2073926;28;20811;-70
2023/02/25 09:32:49;;;;;;;4.28;1.20;;;;;;;7.71;51.57;95643.22;2073207;28;20785;-69
2023/02/25 09:33:50;;;;;;;4.53;1.30;;;;;;;7.61;50.95;95627.22;2073402;28;20212;-70
2023/02/25 09:34:52;;;;;;;5.53;1.00;;;;;;;7.84;50.02;95643.44;2075756;28;20923;-70
2023/02/25 09:35:53;;;;;;;5.85;1.00;;;;;;;7.19;51.37;95637.00;2074488;28;20215;-70
2023/02/25 09:36:56;;;;;;;7.30;0.90;;;;;;;6.90;52.70;95642.75;2073724;28;20557;-70
2023/02/25 09:37:57;;;;;;;6.90;2.35;;;;;;;7.27;52.33;95638.41;2073821;28;20209;-69
2023/02/25 09:38:59;;;;;;;9.85;1.35;;;;;;;7.03;52.04;95641.25;2074376;28;20198;-70
2023/02/25 09:47:30;;;;;;;2.90;1.08;;;;;;;7.38;51.72;95632.69;2092312;27;20567;-70
2023/02/25 09:48:37;;;;;;;4.22;1.00;;;;;;;8.95;48.70;95627.34;2090810;28;20231;-70
2023/02/25 09:49:47;;;;;;;7.50;0.98;;;;;;;10.28;46.78;95611.97;2091185;28;20860;-70
2023/02/25 09:50:52;;;;;;;8.00;1.40;;;;;;;11.56;44.28;95625.91;2080900;28;20252;-70
2023/02/25 09:52:04;;;;;;;6.03;1.30;;;;;;;10.88;45.62;95620.56;2082686;28;20196;-71
2023/02/25 09:53:14;;;;;;;7.53;1.45;;;;;;;10.17;46.45;95629.19;2084261;28;20201;-70
2023/02/25 09:54:33;;;;;;;7.15;1.15;;;;;;;9.36;45.97;95627.72;2083042;28;20193;-72
2023/02/25 09:55:38;;;;;;;3.92;1.30;;;;;;;8.78;48.20;95612.59;2081442;28;20259;-70
2023/02/25 09:56:40;;;;;;;7.47;1.17;;;;;;;8.93;49.03;95621.34;2083578;28;20203;-70
2023/02/25 09:57:48;;;;;;;5.75;0.95;;;;;;;8.47;48.09;95608.22;2083807;28;20201;-70
2023/02/25 09:58:55;;;;;;;3.88;0.90;;;;;;;8.67;47.13;95625.34;2084165;28;20228;-70
2023/02/25 09:59:56;;;;;;;3.83;0.80;;;;;;;8.90;46.88;95621.53;2080519;28;20209;-70
2023/02/25 10:01:17;;;;;;;2.97;0.85;;;;;;;8.01;48.11;95621.78;2088909;28;20193;-70
2023/02/25 10:02:31;;;;;;;2.50;0.90;;;;;;;7.93;47.79;95618.75;2080256;28;20871;-70
2023/02/25 10:03:52;;;;;;;2.55;0.98;;;;;;;8.88;47.38;95631.19;2078058;28;20283;-70
2023/02/25 10:05:13;;;;;;;1.77;0.73;;;;;;;8.87;48.23;95628.66;2078292;28;20200;-70
2023/02/25 10:06:19;;;;;;;2.63;1.00;;;;;;;8.82;47.98;95628.91;2080566;28;20649;-70
2023/02/25 10:07:27;;;;;;;5.82;1.00;;;;;;;8.13;49.35;95626.38;2082871;28;20287;-70
2023/02/25 10:08:43;;;;;;;5.10;1.20;;;;;;;7.28;51.04;95612.38;2083394;28;20223;-70
2023/02/25 10:09:52;;;;;;;4.70;1.20;;;;;;;7.73;52.11;95628.38;2085152;28;20647;-69
2023/02/25 10:11:12;;;;;;;7.25;1.30;;;;;;;6.89;51.96;95623.72;2085762;28;20189;-70
2023/02/25 10:12:34;;;;;;;4.63;1.05;;;;;;;6.59;52.63;95626.81;2083197;28;20699;-70
2023/02/25 10:13:41;;;;;;;5.07;1.15;;;;;;;6.70;54.10;95627.16;2090839;28;20296;-70
2023/02/25 10:14:51;;;;;;;3.70;1.20;;;;;;;6.68;54.24;95625.56;2089816;28;20201;-70
2023/02/25 10:16:15;;;;;;;4.03;1.30;;;;;;;5.93;54.40;95607.19;2090275;28;20323;-69
2023/02/25 10:17:19;;;;;;;4.00;0.95;;;;;;;5.55;55.18;95633.78;2088863;28;20636;-69
2023/02/25 10:18:44;;;;;;;5.25;1.17;;;;;;;5.76;54.63;95632.97;2082870;28;20195;-69
2023/02/25 10:20:08;;;;;;;4.80;1.08;;;;;;;5.43;55.37;95636.03;2081963;28;20198;-69
2023/02/25 10:21:36;;;;;;;3.10;1.13;;;;;;;5.50;55.57;95642.66;2082243;28;20737;-69
2023/02/25 10:23:11;;;;;;;4.05;1.00;;;;;;;5.58;56.09;95640.56;2082476;28;20195;-69
2023/02/25 10:24:25;;;;;;;5.25;1.45;;;;;;;5.36;55.76;95641.44;2083826;28;20197;-69
2023/02/25 13:44:27;;;;;;;6.35;0.95;;;;;;;4.69;64.02;95575.91;2101878;27;20549;-66
2023/02/25 13:45:53;;;;;;;6.65;1.20;;;;;;;4.65;62.89;95578.69;2097012;28;20795;-67
2023/02/25 13:56:22;;;;;;;6.22;1.25;;;;;;;4.50;62.14;95575.75;2090442;28;20540;-66
2023/02/25 13:57:40;;;;;;;8.73;2.22;;;;;;;4.50;61.89;95578.34;2078565;28;20197;-67
2023/02/25 13:59:12;;;;;;;8.10;1.00;;;;;;;4.65;61.88;95578.69;2079733;28;20200;-66
2023/02/25 14:00:52;;;;;;;3.97;1.23;;;;;;;5.54;59.97;95576.88;2075239;28;20740;-66
2023/02/25 14:02:15;;;;;;;13.35;2.95;;;;;;;6.66;57.82;95578.06;2066158;28;20213;-67
2023/02/25 14:03:30;;;;;;;10.00;1.42;;;;;;;7.18;54.76;95569.59;2071259;28;20269;-67
2023/02/25 14:05:09;;;;;;;5.88;1.80;;;;;;;7.33;54.57;95570.59;2071851;28;20197;-68
2023/02/25 14:06:36;;;;;;;11.90;1.23;;;;;;;7.74;54.02;95569.47;2071544;28;20213;-67
2023/02/25 14:07:54;;;;;;;14.85;1.45;;;;;;;7.76;53.25;95575.44;2070500;28;20255;-66
2023/02/25 14:09:12;;;;;;;4.13;1.23;;;;;;;7.68;53.40;95578.38;2071653;28;20257;-66
2023/02/25 14:10:17;;;;;;;3.95;1.10;;;;;;;6.61;54.46;95569.66;2070815;28;20309;-66
2023/02/25 14:11:43;;;;;;;3.50;1.30;;;;;;;6.15;56.32;95570.81;2071591;28;20728;-66
2023/02/25 14:13:10;;;;;;;4.47;0.95;;;;;;;6.04;57.46;95578.22;2070978;28;20312;-68
2023/02/25 14:14:35;;;;;;;6.13;1.25;;;;;;;5.93;58.64;95572.63;2070606;28;20205;-67
2023/02/25 14:15:48;;;;;;;2.88;0.90;;;;;;;5.81;58.71;95572.25;2069751;28;20225;-67
2023/02/25 14:17:45;;;;;;;5.63;1.23;;;;;;;5.48;58.12;95577.13;2072888;28;20197;-67
2023/02/25 14:34:25;;;;;;;8.55;1.85;;;;;;;5.98;59.97;95552.53;2085485;28;20540;-62
2023/02/25 14:35:42;;;;;;;9.75;1.65;;;;;;;6.17;59.01;95561.25;2074637;28;20244;-62
2023/02/25 14:37:10;;;;;;;9.02;1.38;;;;;;;6.97;57.11;95572.31;2072947;28;20221;-63
2023/02/25 14:38:20;;;;;;;6.15;1.30;;;;;;;7.19;56.41;95579.88;2076679;28;20201;-63
2023/02/25 14:39:49;;;;;;;6.75;1.83;;;;;;;7.60;55.21;95573.56;2073414;28;20194;-63
2023/02/25 14:41:36;;;;;;;4.43;1.15;;;;;;;8.61;53.19;95574.47;2071706;28;20776;-62
2023/02/25 14:42:55;;;;;;;7.88;1.30;;;;;;;7.47;53.72;95575.13;2069679;28;20212;-62
2023/02/25 14:44:02;;;;;;;11.35;1.60;;;;;;;8.14;53.61;95573.44;2069334;28;20194;-63
2023/02/25 14:45:11;;;;;;;5.68;1.50;;;;;;;8.42;52.71;95574.59;2068381;28;20651;-63
2023/02/25 14:46:24;;;;;;;12.52;1.40;;;;;;;7.97;53.30;95574.34;2061122;28;20204;-62
2023/02/25 14:47:34;;;;;;;5.65;1.42;;;;;;;7.70;54.30;95573.97;2062696;28;20846;-63
2023/02/25 14:48:57;;;;;;;8.32;1.30;;;;;;;7.28;53.71;95576.00;2069220;28;20201;-62
2023/02/25 14:50:17;;;;;;;4.82;1.48;;;;;;;6.89;54.62;95556.22;2067734;28;20206;-62
2023/02/25 14:52:00;;;;;;;9.85;2.17;;;;;;;6.43;55.82;95579.97;2059492;28;20721;-63
2023/02/25 14:56:03;;;;;;;6.78;1.90;;;;;;;6.88;55.23;95577.91;2111967;27;21129;-67
2023/02/25 14:57:21;;;;;;;5.80;1.45;;;;;;;6.78;55.48;95577.50;2103906;28;20196;-66
2023/02/25 14:58:40;;;;;;;4.28;1.17;;;;;;;6.94;55.17;95577.63;2107179;28;20197;-67
2023/02/25 15:00:12;;;;;;;5.50;1.45;;;;;;;6.08;55.14;95564.22;2105545;28;20196;-66
2023/02/25 15:01:25;;;;;;;9.80;1.38;;;;;;;5.81;55.83;95574.84;2107022;28;20661;-66
2023/02/25 15:03:01;;;;;;;10.50;1.42;;;;;;;5.85;56.77;95575.56;2104793;28;20181;-67
2023/02/25 15:44:32;;;;;;;9.60;1.55;;;;;;;6.17;56.75;95589.75;2104659;27;20532;-67
2023/02/25 15:45:36;;;;;;;4.82;1.23;;;;;;;6.45;56.11;95605.81;2083473;28;20249;-67
2023/02/25 15:46:41;;;;;;;5.80;1.33;;;;;;;5.94;57.02;95608.00;2068736;28;20285;-66
